Time;durP1;ratioP1;P1;durP2;ratioP2;P2;SDS_P1;SDS_P2;PMS_P1;PMS_P2;Temp;Humidity;BMP_temperature;BMP_pressure;BME280_temperature;BME280_humidity;BME280_pressure;Samples;Min_cycle;Max_cycle;Signal;HPM_P1;HPM_P2
2021/09/12 00:01:24;;;;;;;9.02;5.93;;;;;;;;;;5049896;28;20112;-58
2021/09/12 00:03:50;;;;;;;8.55;5.63;;;;;;;;;;5052696;28;20128;-57
2021/09/12 00:06:16;;;;;;;7.80;5.18;;;;;;;;;;5068713;28;20040;-55
2021/09/12 00:08:42;;;;;;;11.63;5.88;;;;;;;;;;5049292;28;20036;-57
2021/09/12 00:11:08;;;;;;;10.32;6.55;;;;;;;;;;5055193;28;20032;-57
2021/09/12 00:13:35;;;;;;;9.65;6.28;;;;;;;;;;5050354;28;20082;-57
2021/09/12 00:16:01;;;;;;;9.23;5.70;;;;;;;;;;5041261;28;20043;-56
2021/09/12 00:18:27;;;;;;;10.77;6.75;;;;;;;;;;5059456;28;20140;-57
2021/09/12 00:20:53;;;;;;;8.77;5.45;;;;;;;;;;5057591;28;20108;-57
2021/09/12 00:23:19;;;;;;;9.25;5.78;;;;;;;;;;5049502;28;20032;-57
2021/09/12 00:25:45;;;;;;;10.68;6.80;;;;;;;;;;5053968;28;20039;-56
2021/09/12 00:28:11;;;;;;;10.30;6.15;;;;;;;;;;5044048;28;20020;-56
2021/09/12 00:30:37;;;;;;;11.25;6.95;;;;;;;;;;5047206;28;20499;-56
2021/09/12 00:33:03;;;;;;;10.77;6.55;;;;;;;;;;5057349;28;20021;-57
2021/09/12 00:35:29;;;;;;;10.00;6.13;;;;;;;;;;5048229;28;20040;-58
2021/09/12 00:37:55;;;;;;;11.43;6.85;;;;;;;;;;5062217;28;20029;-58
2021/09/12 00:40:22;;;;;;;9.02;5.32;;;;;;;;;;5065908;28;20029;-59
2021/09/12 00:42:49;;;;;;;11.15;6.07;;;;;;;;;;5066409;28;20446;-58
2021/09/12 00:45:15;;;;;;;9.38;6.10;;;;;;;;;;5053812;28;20492;-58
2021/09/12 00:47:41;;;;;;;9.57;5.78;;;;;;;;;;5051308;28;20107;-56
2021/09/12 00:50:07;;;;;;;10.02;6.20;;;;;;;;;;5052255;28;20370;-58
2021/09/12 00:52:34;;;;;;;11.10;6.65;;;;;;;;;;5069290;28;20068;-57
2021/09/12 00:55:01;;;;;;;11.18;6.30;;;;;;;;;;5054487;28;20112;-57
2021/09/12 00:57:28;;;;;;;9.10;5.53;;;;;;;;;;5041896;28;20029;-58
2021/09/12 00:59:54;;;;;;;9.30;5.85;;;;;;;;;;5040722;28;20029;-58
2021/09/12 01:02:20;;;;;;;13.20;7.32;;;;;;;;;;5037783;28;20104;-58
2021/09/12 01:04:47;;;;;;;9.80;5.85;;;;;;;;;;5041459;28;20079;-57
2021/09/12 01:07:13;;;;;;;10.07;6.47;;;;;;;;;;5057331;28;20104;-56
2021/09/12 01:09:40;;;;;;;12.20;6.57;;;;;;;;;;5042663;28;20112;-57
2021/09/12 01:12:07;;;;;;;10.05;6.40;;;;;;;;;;5054142;28;20068;-55
2021/09/12 01:14:33;;;;;;;11.32;6.97;;;;;;;;;;5035225;28;20029;-53
2021/09/12 01:17:00;;;;;;;10.98;6.50;;;;;;;;;;5053867;28;20119;-56
2021/09/12 01:19:26;;;;;;;9.88;6.10;;;;;;;;;;5072319;28;20040;-58
2021/09/12 01:21:55;;;;;;;11.30;6.82;;;;;;;;;;5057387;28;20116;-58
2021/09/12 01:24:22;;;;;;;11.52;6.75;;;;;;;;;;5041585;28;20485;-57
2021/09/12 01:26:47;;;;;;;11.70;7.03;;;;;;;;;;5053217;28;20197;-58
2021/09/12 01:29:15;;;;;;;11.50;6.82;;;;;;;;;;5045300;28;20037;-58
2021/09/12 01:31:41;;;;;;;11.52;6.78;;;;;;;;;;5063586;28;20032;-58
2021/09/12 01:34:07;;;;;;;10.65;6.60;;;;;;;;;;5063402;28;20105;-57
2021/09/12 01:36:33;;;;;;;12.57;7.13;;;;;;;;;;5064253;28;20029;-58
2021/09/12 01:38:59;;;;;;;10.55;6.30;;;;;;;;;;5052623;28;20134;-56
2021/09/12 01:41:25;;;;;;;11.60;7.13;;;;;;;;;;5036823;28;20488;-56
2021/09/12 01:43:59;;;;;;;10.23;7.22;;;;;;;;;;5044930;28;20037;-54
2021/09/12 01:46:25;;;;;;;12.30;6.72;;;;;;;;;;5051653;28;20041;-56
2021/09/12 01:48:52;;;;;;;12.20;6.97;;;;;;;;;;5049124;28;20029;-57
2021/09/12 01:51:18;;;;;;;9.45;6.25;;;;;;;;;;5065386;28;20422;-52
2021/09/12 01:53:45;;;;;;;9.77;6.28;;;;;;;;;;5057346;28;20048;-54
2021/09/12 01:56:11;;;;;;;10.07;6.60;;;;;;;;;;5050436;28;20544;-56
2021/09/12 01:58:37;;;;;;;9.77;6.57;;;;;;;;;;5045768;28;20040;-56
2021/09/12 02:01:04;;;;;;;8.60;6.07;;;;;;;;;;5045294;28;20358;-53
2021/09/12 02:03:30;;;;;;;10.70;6.60;;;;;;;;;;5054648;28;20549;-54
2021/09/12 02:05:56;;;;;;;10.50;6.53;;;;;;;;;;5052344;28;20036;-56
2021/09/12 02:08:22;;;;;;;11.32;5.75;;;;;;;;;;5043311;28;20052;-56
2021/09/12 02:10:48;;;;;;;10.80;7.30;;;;;;;;;;5046492;28;20033;-56
2021/09/12 02:13:14;;;;;;;10.38;7.18;;;;;;;;;;5046895;28;20390;-58
2021/09/12 02:15:40;;;;;;;11.63;6.82;;;;;;;;;;5042143;28;20060;-58
2021/09/12 02:18:06;;;;;;;10.98;6.72;;;;;;;;;;5050802;28;20045;-57
2021/09/12 02:20:32;;;;;;;9.52;6.35;;;;;;;;;;5042226;28;20112;-57
2021/09/12 02:22:58;;;;;;;14.20;8.05;;;;;;;;;;5049642;28;20082;-58
2021/09/12 02:25:24;;;;;;;11.00;6.65;;;;;;;;;;5039709;28;20381;-58
2021/09/12 02:27:50;;;;;;;11.55;7.30;;;;;;;;;;5052983;28;20028;-57
2021/09/12 02:30:16;;;;;;;11.55;7.20;;;;;;;;;;5041671;28;20029;-58
2021/09/12 02:32:42;;;;;;;10.02;6.85;;;;;;;;;;5056952;28;20170;-57
2021/09/12 02:35:09;;;;;;;15.23;9.10;;;;;;;;;;5056199;28;20048;-54
2021/09/12 02:37:35;;;;;;;12.02;7.80;;;;;;;;;;5042159;28;20483;-52
2021/09/12 02:40:01;;;;;;;9.90;6.22;;;;;;;;;;5046768;28;20096;-56
2021/09/12 02:42:27;;;;;;;11.40;7.07;;;;;;;;;;5041225;28;20113;-54
2021/09/12 02:44:54;;;;;;;9.90;6.75;;;;;;;;;;5051647;28;20103;-56
2021/09/12 02:47:20;;;;;;;12.25;7.45;;;;;;;;;;5049766;28;20039;-56
2021/09/12 02:49:46;;;;;;;12.38;7.32;;;;;;;;;;5035627;28;20025;-55
2021/09/12 02:52:12;;;;;;;12.13;7.30;;;;;;;;;;5062292;28;20055;-54
2021/09/12 02:54:38;;;;;;;10.00;6.93;;;;;;;;;;5053512;28;20024;-54
2021/09/12 02:57:04;;;;;;;12.18;7.45;;;;;;;;;;5045737;28;20481;-55
2021/09/12 02:59:30;;;;;;;13.18;7.20;;;;;;;;;;5057196;28;20108;-57
2021/09/12 03:01:56;;;;;;;9.85;6.47;;;;;;;;;;5050845;28;20039;-58
2021/09/12 03:04:24;;;;;;;15.98;7.68;;;;;;;;;;5060258;28;20096;-58
2021/09/12 03:06:50;;;;;;;8.50;6.20;;;;;;;;;;5041959;28;20029;-58
2021/09/12 03:09:16;;;;;;;12.57;7.38;;;;;;;;;;5044460;28;20373;-58
2021/09/12 03:11:42;;;;;;;11.75;6.95;;;;;;;;;;5056183;28;20029;-58
2021/09/12 03:14:08;;;;;;;10.73;6.88;;;;;;;;;;5056825;28;20082;-57
2021/09/12 03:16:34;;;;;;;9.75;6.55;;;;;;;;;;5050823;28;20431;-56
2021/09/12 03:19:00;;;;;;;9.63;6.32;;;;;;;;;;5062945;28;20048;-57
2021/09/12 03:21:26;;;;;;;10.38;6.65;;;;;;;;;;5042997;28;20094;-57
2021/09/12 03:23:51;;;;;;;11.55;7.03;;;;;;;;;;5044252;28;20033;-56
2021/09/12 03:26:17;;;;;;;10.48;7.38;;;;;;;;;;5049788;28;20041;-53
2021/09/12 03:28:43;;;;;;;11.50;7.15;;;;;;;;;;5045939;28;20022;-55
2021/09/12 03:31:09;;;;;;;12.02;7.80;;;;;;;;;;5038143;28;20457;-51
2021/09/12 03:33:35;;;;;;;10.85;7.15;;;;;;;;;;5044638;28;20048;-56
2021/09/12 03:36:01;;;;;;;12.77;8.35;;;;;;;;;;5051152;28;20052;-55
2021/09/12 03:38:27;;;;;;;13.23;7.68;;;;;;;;;;5050792;28;20468;-56
2021/09/12 03:40:53;;;;;;;10.63;6.82;;;;;;;;;;5039806;28;20029;-57
2021/09/12 03:43:19;;;;;;;12.35;7.20;;;;;;;;;;5049700;28;20030;-54
2021/09/12 03:45:45;;;;;;;11.05;7.13;;;;;;;;;;5042437;28;20088;-57
2021/09/12 03:48:11;;;;;;;11.18;7.72;;;;;;;;;;5047928;28;20033;-58
2021/09/12 03:50:37;;;;;;;12.02;7.68;;;;;;;;;;5053318;28;20338;-57
2021/09/12 03:53:03;;;;;;;10.55;7.38;;;;;;;;;;5051454;28;20017;-58
2021/09/12 03:55:29;;;;;;;14.63;6.80;;;;;;;;;;5053040;28;20045;-58
2021/09/12 03:57:55;;;;;;;11.77;7.50;;;;;;;;;;5057841;28;20028;-57
2021/09/12 04:00:21;;;;;;;12.45;7.85;;;;;;;;;;5045626;28;20411;-58
2021/09/12 04:02:47;;;;;;;13.65;7.85;;;;;;;;;;5056791;28;20098;-55
2021/09/12 04:05:13;;;;;;;13.88;8.02;;;;;;;;;;5037718;28;20438;-55
2021/09/12 04:07:39;;;;;;;10.32;7.00;;;;;;;;;;5061780;28;20029;-57
2021/09/12 04:10:06;;;;;;;10.82;6.85;;;;;;;;;;5051532;28;20104;-56
2021/09/12 04:12:32;;;;;;;12.68;8.10;;;;;;;;;;5055838;28;20429;-52
2021/09/12 04:14:58;;;;;;;14.05;8.18;;;;;;;;;;5045336;28;20033;-52
2021/09/12 04:17:24;;;;;;;12.02;8.75;;;;;;;;;;5037265;28;20022;-55
2021/09/12 04:19:50;;;;;;;12.93;7.57;;;;;;;;;;5045899;28;20063;-55
2021/09/12 04:22:16;;;;;;;11.38;7.32;;;;;;;;;;5040796;28;20108;-58
2021/09/12 04:24:42;;;;;;;11.23;7.20;;;;;;;;;;5048944;28;20039;-56
2021/09/12 04:27:09;;;;;;;13.25;7.60;;;;;;;;;;5052148;28;20682;-57
2021/09/12 04:29:35;;;;;;;14.25;7.95;;;;;;;;;;5046382;28;20028;-54
2021/09/12 04:32:01;;;;;;;12.88;8.27;;;;;;;;;;5048971;28;20021;-52
2021/09/12 04:34:27;;;;;;;12.52;8.13;;;;;;;;;;5046305;28;20536;-58
2021/09/12 04:36:53;;;;;;;11.50;7.15;;;;;;;;;;5058773;28;20040;-57
2021/09/12 04:39:19;;;;;;;10.57;6.82;;;;;;;;;;5050396;28;20031;-58
2021/09/12 04:41:45;;;;;;;12.68;7.30;;;;;;;;;;5065721;28;20070;-57
2021/09/12 04:44:11;;;;;;;10.80;6.88;;;;;;;;;;5045378;28;20104;-58
2021/09/12 04:46:37;;;;;;;12.02;7.32;;;;;;;;;;5059668;28;20116;-56
2021/09/12 04:49:03;;;;;;;12.75;7.47;;;;;;;;;;5039865;28;20037;-57
2021/09/12 04:51:29;;;;;;;13.73;7.70;;;;;;;;;;5054999;28;20056;-58
2021/09/12 04:53:55;;;;;;;12.50;7.20;;;;;;;;;;5047653;28;20027;-56
2021/09/12 04:56:21;;;;;;;12.65;8.18;;;;;;;;;;5029300;28;20028;-54
2021/09/12 04:58:47;;;;;;;12.70;7.72;;;;;;;;;;5031850;28;20025;-56
2021/09/12 05:01:13;;;;;;;12.90;7.53;;;;;;;;;;5043985;28;20033;-54
2021/09/12 05:03:39;;;;;;;13.50;7.65;;;;;;;;;;5047657;28;20057;-56
2021/09/12 05:06:05;;;;;;;12.80;8.00;;;;;;;;;;5053156;28;20452;-56
2021/09/12 05:08:31;;;;;;;15.82;7.63;;;;;;;;;;5051680;28;20026;-52
2021/09/12 05:10:57;;;;;;;12.85;8.15;;;;;;;;;;5046021;28;20028;-57
2021/09/12 05:13:23;;;;;;;13.23;7.40;;;;;;;;;;5053301;28;20082;-57
2021/09/12 05:15:49;;;;;;;12.15;7.55;;;;;;;;;;5067239;28;20023;-56
2021/09/12 05:18:15;;;;;;;10.70;7.30;;;;;;;;;;5037068;28;20073;-56
2021/09/12 05:20:41;;;;;;;11.88;7.15;;;;;;;;;;5065732;28;20064;-58
2021/09/12 05:23:07;;;;;;;12.23;7.40;;;;;;;;;;5065546;28;20534;-58
2021/09/12 05:25:33;;;;;;;12.32;7.43;;;;;;;;;;5053886;28;20037;-57
2021/09/12 05:27:59;;;;;;;12.55;7.22;;;;;;;;;;5042446;28;20078;-58
2021/09/12 05:30:25;;;;;;;10.57;6.75;;;;;;;;;;5047751;28;20017;-58
2021/09/12 05:32:51;;;;;;;13.15;7.72;;;;;;;;;;5049883;28;20049;-58
2021/09/12 05:35:18;;;;;;;12.43;7.97;;;;;;;;;;5047653;28;20043;-58
2021/09/12 05:37:44;;;;;;;13.23;8.43;;;;;;;;;;5059595;28;20027;-55
2021/09/12 05:40:10;;;;;;;11.77;7.45;;;;;;;;;;5062863;28;20571;-55
2021/09/12 05:42:37;;;;;;;12.23;7.85;;;;;;;;;;5036807;28;20037;-58
2021/09/12 05:45:04;;;;;;;13.65;8.38;;;;;;;;;;5053163;28;20044;-57
2021/09/12 05:47:30;;;;;;;11.98;7.60;;;;;;;;;;5041846;28;20170;-56
2021/09/12 05:49:56;;;;;;;11.20;7.03;;;;;;;;;;5040952;28;20112;-56
2021/09/12 05:52:22;;;;;;;14.43;8.70;;;;;;;;;;5048784;28;20108;-55
2021/09/12 05:54:48;;;;;;;14.25;8.48;;;;;;;;;;5052797;28;20033;-54
2021/09/12 05:57:14;;;;;;;12.43;8.35;;;;;;;;;;5047626;28;20339;-55
2021/09/12 05:59:40;;;;;;;11.57;6.95;;;;;;;;;;5046491;28;20026;-57
2021/09/12 06:02:06;;;;;;;12.02;7.90;;;;;;;;;;5045892;28;20519;-57
2021/09/12 06:04:33;;;;;;;12.20;7.55;;;;;;;;;;5043593;28;20110;-55
2021/09/12 06:06:58;;;;;;;15.70;8.57;;;;;;;;;;5051062;28;20120;-55
2021/09/12 06:09:24;;;;;;;18.10;8.57;;;;;;;;;;5044436;28;20120;-57
2021/09/12 06:11:51;;;;;;;11.80;7.72;;;;;;;;;;5044008;28;20029;-58
2021/09/12 06:14:17;;;;;;;14.15;8.73;;;;;;;;;;5046911;28;20120;-57
2021/09/12 06:16:43;;;;;;;11.95;7.88;;;;;;;;;;5044413;28;20025;-58
2021/09/12 06:19:09;;;;;;;14.07;8.35;;;;;;;;;;5047853;28;20560;-56
2021/09/12 06:21:35;;;;;;;13.25;8.20;;;;;;;;;;5051317;28;20365;-58
2021/09/12 06:24:01;;;;;;;12.80;7.60;;;;;;;;;;5057437;28;20029;-55
2021/09/12 06:26:27;;;;;;;13.80;8.10;;;;;;;;;;5058674;28;20040;-57
2021/09/12 06:28:54;;;;;;;13.52;6.90;;;;;;;;;;5039744;28;20020;-57
2021/09/12 06:31:20;;;;;;;11.52;7.15;;;;;;;;;;5045316;28;20021;-55
2021/09/12 06:33:46;;;;;;;12.18;7.43;;;;;;;;;;5042605;28;20733;-56
2021/09/12 06:36:12;;;;;;;10.57;6.32;;;;;;;;;;5055651;28;20044;-54
2021/09/12 06:38:38;;;;;;;11.65;7.45;;;;;;;;;;5026564;28;20047;-56
2021/09/12 06:41:04;;;;;;;12.88;7.88;;;;;;;;;;5043496;28;20039;-56
2021/09/12 06:43:30;;;;;;;13.25;7.80;;;;;;;;;;5054504;28;20021;-56
2021/09/12 06:45:56;;;;;;;12.15;7.63;;;;;;;;;;5053539;28;20055;-56
2021/09/12 06:48:22;;;;;;;10.93;6.93;;;;;;;;;;5045574;28;20512;-56
2021/09/12 06:50:49;;;;;;;12.55;7.15;;;;;;;;;;5058844;28;20028;-57
2021/09/12 06:53:15;;;;;;;13.75;7.95;;;;;;;;;;5041634;28;20075;-57
2021/09/12 06:55:41;;;;;;;15.13;8.10;;;;;;;;;;5035815;28;20040;-58
2021/09/12 06:58:07;;;;;;;13.15;7.35;;;;;;;;;;5047397;28;20032;-58
2021/09/12 07:00:33;;;;;;;13.65;6.55;;;;;;;;;;5044706;28;20044;-58
2021/09/12 07:02:59;;;;;;;13.68;7.80;;;;;;;;;;5044809;28;20076;-58
2021/09/12 07:05:25;;;;;;;11.80;6.07;;;;;;;;;;5039764;28;20060;-58
2021/09/12 07:07:51;;;;;;;10.85;6.45;;;;;;;;;;5046197;28;20033;-57
2021/09/12 07:10:18;;;;;;;13.60;7.82;;;;;;;;;;5039741;28;20033;-57
2021/09/12 07:12:44;;;;;;;12.30;6.80;;;;;;;;;;5042473;28;20021;-56
2021/09/12 07:15:10;;;;;;;11.50;7.03;;;;;;;;;;5051933;28;20099;-56
2021/09/12 07:17:36;;;;;;;10.07;6.32;;;;;;;;;;5038885;28;20095;-51
2021/09/12 07:20:03;;;;;;;13.07;6.65;;;;;;;;;;5045223;28;20053;-57
2021/09/12 07:22:28;;;;;;;13.32;7.78;;;;;;;;;;5051675;28;20060;-56
2021/09/12 07:24:54;;;;;;;11.57;6.57;;;;;;;;;;5049670;28;20052;-54
2021/09/12 07:27:20;;;;;;;11.63;6.72;;;;;;;;;;5050147;28;20030;-56
2021/09/12 07:29:46;;;;;;;10.07;6.18;;;;;;;;;;5045397;28;20025;-56
2021/09/12 07:32:12;;;;;;;11.27;6.25;;;;;;;;;;5049020;28;20067;-57
2021/09/12 07:34:38;;;;;;;11.35;6.68;;;;;;;;;;5048753;28;20669;-57
2021/09/12 07:37:06;;;;;;;10.65;6.88;;;;;;;;;;5048824;28;20099;-56
2021/09/12 07:39:32;;;;;;;10.50;5.95;;;;;;;;;;5047913;28;20036;-56
2021/09/12 07:41:58;;;;;;;10.63;6.55;;;;;;;;;;5048128;28;20582;-58
2021/09/12 07:44:24;;;;;;;9.38;6.05;;;;;;;;;;5060589;28;20115;-56
2021/09/12 07:46:50;;;;;;;10.20;6.28;;;;;;;;;;5054081;28;20086;-57
2021/09/12 07:49:16;;;;;;;9.98;6.05;;;;;;;;;;5043884;28;20410;-59
2021/09/12 07:51:41;;;;;;;10.35;5.95;;;;;;;;;;5049253;28;20053;-57
2021/09/12 07:54:07;;;;;;;11.77;6.15;;;;;;;;;;5041849;28;20031;-58
2021/09/12 07:56:33;;;;;;;11.32;5.93;;;;;;;;;;5063685;28;20032;-57
2021/09/12 07:59:00;;;;;;;11.75;7.18;;;;;;;;;;5051702;28;20083;-56
2021/09/12 08:01:26;;;;;;;12.13;6.32;;;;;;;;;;5055443;28;20021;-58
2021/09/12 08:03:52;;;;;;;9.00;5.38;;;;;;;;;;5051274;28;20040;-55
2021/09/12 08:06:18;;;;;;;13.40;6.70;;;;;;;;;;5053142;28;20126;-57
2021/09/12 08:08:44;;;;;;;10.57;6.88;;;;;;;;;;5050994;28;20112;-57
2021/09/12 08:11:10;;;;;;;11.07;6.25;;;;;;;;;;5051443;28;20033;-57
2021/09/12 08:13:36;;;;;;;10.90;6.32;;;;;;;;;;5040830;28;20025;-58
2021/09/12 08:16:02;;;;;;;9.65;5.85;;;;;;;;;;5053560;28;20066;-54
2021/09/12 08:18:28;;;;;;;9.57;5.93;;;;;;;;;;5047401;28;20060;-58
2021/09/12 08:20:54;;;;;;;12.60;7.35;;;;;;;;;;5054552;28;20034;-56
2021/09/12 08:23:20;;;;;;;14.52;7.07;;;;;;;;;;5061690;28;20401;-58
2021/09/12 08:25:46;;;;;;;9.43;5.32;;;;;;;;;;5056436;28;20037;-57
2021/09/12 08:28:13;;;;;;;10.65;5.95;;;;;;;;;;5043454;28;20041;-55
2021/09/12 08:30:39;;;;;;;9.45;6.22;;;;;;;;;;5044813;28;20481;-58
2021/09/12 08:33:12;;;;;;;11.65;6.25;;;;;;;;;;5051083;28;20060;-59
2021/09/12 08:35:38;;;;;;;11.63;6.20;;;;;;;;;;5040169;28;20158;-58
2021/09/12 08:38:04;;;;;;;11.60;7.22;;;;;;;;;;5031968;28;20033;-58
2021/09/12 08:40:30;;;;;;;11.55;6.45;;;;;;;;;;5033830;28;20134;-58
2021/09/12 08:42:58;;;;;;;13.35;6.32;;;;;;;;;;5044984;28;20029;-58
2021/09/12 08:45:24;;;;;;;10.27;5.78;;;;;;;;;;5037441;28;20608;-58
2021/09/12 08:47:50;;;;;;;8.52;4.88;;;;;;;;;;5036929;28;20033;-58
2021/09/12 08:50:16;;;;;;;11.10;6.78;;;;;;;;;;5038391;28;20079;-57
2021/09/12 08:52:44;;;;;;;9.20;5.47;;;;;;;;;;5036923;28;20424;-58
2021/09/12 08:55:10;;;;;;;10.25;6.22;;;;;;;;;;5034335;28;20021;-58
2021/09/12 08:57:36;;;;;;;9.63;5.80;;;;;;;;;;5038447;28;20171;-57
2021/09/12 09:00:13;;;;;;;9.43;5.88;;;;;;;;;;5036027;28;20536;-57
2021/09/12 09:02:39;;;;;;;10.90;5.95;;;;;;;;;;5035317;28;20079;-56
2021/09/12 09:05:05;;;;;;;13.02;6.78;;;;;;;;;;5040125;28;20672;-58
2021/09/12 09:07:32;;;;;;;8.63;5.90;;;;;;;;;;5036015;28;20030;-58
2021/09/12 09:10:00;;;;;;;9.85;5.78;;;;;;;;;;5039738;28;20034;-57
2021/09/12 09:12:29;;;;;;;10.85;5.93;;;;;;;;;;5042148;28;20104;-56
2021/09/12 09:15:02;;;;;;;10.27;5.53;;;;;;;;;;5020224;28;20499;-55
2021/09/12 09:17:28;;;;;;;8.07;5.05;;;;;;;;;;5034922;28;20143;-57
2021/09/12 09:19:55;;;;;;;12.80;6.05;;;;;;;;;;5032187;28;20127;-56
2021/09/12 09:22:34;;;;;;;8.82;5.70;;;;;;;;;;5036078;28;20064;-58
2021/09/12 09:25:06;;;;;;;9.38;5.70;;;;;;;;;;5040367;28;20029;-56
2021/09/12 09:27:49;;;;;;;7.40;5.03;;;;;;;;;;5043687;28;20031;-57
2021/09/12 09:30:15;;;;;;;9.57;5.35;;;;;;;;;;5037481;28;20276;-56
2021/09/12 09:32:41;;;;;;;8.25;4.78;;;;;;;;;;5042199;28;20055;-57
2021/09/12 09:35:08;;;;;;;10.65;6.30;;;;;;;;;;5034804;28;20032;-53
2021/09/12 09:37:33;;;;;;;9.10;5.47;;;;;;;;;;5035171;28;20026;-54
2021/09/12 09:39:59;;;;;;;12.55;5.97;;;;;;;;;;5034489;28;20550;-52
2021/09/12 09:42:32;;;;;;;8.90;5.03;;;;;;;;;;5033978;28;20017;-57
2021/09/12 09:45:10;;;;;;;11.98;6.63;;;;;;;;;;5031720;28;20057;-55
2021/09/12 09:47:37;;;;;;;9.90;5.70;;;;;;;;;;5040790;28;20035;-55
2021/09/12 09:50:12;;;;;;;8.68;5.30;;;;;;;;;;5054650;28;20013;-55
2021/09/12 09:52:38;;;;;;;8.85;5.45;;;;;;;;;;5060389;28;20028;-52
2021/09/12 09:55:04;;;;;;;9.45;5.75;;;;;;;;;;5052369;28;20086;-55
2021/09/12 09:57:30;;;;;;;10.15;5.32;;;;;;;;;;5054653;28;20036;-56
2021/09/12 10:00:00;;;;;;;9.13;5.65;;;;;;;;;;5051071;28;20047;-56
2021/09/12 10:02:26;;;;;;;9.23;5.75;;;;;;;;;;5045270;28;20021;-54
2021/09/12 10:04:52;;;;;;;8.25;4.55;;;;;;;;;;5038823;28;20021;-57
2021/09/12 10:07:20;;;;;;;10.13;5.50;;;;;;;;;;5043837;28;20108;-54
2021/09/12 10:09:46;;;;;;;10.80;4.85;;;;;;;;;;5046740;28;20505;-58
2021/09/12 10:12:12;;;;;;;8.23;4.88;;;;;;;;;;5043806;28;20021;-54
2021/09/12 10:14:44;;;;;;;7.22;4.50;;;;;;;;;;5049313;28;20033;-56
2021/09/12 10:17:14;;;;;;;8.48;5.10;;;;;;;;;;5049368;28;20040;-55
2021/09/12 10:19:40;;;;;;;6.35;4.30;;;;;;;;;;5037841;28;20046;-56
2021/09/12 10:22:14;;;;;;;5.75;3.60;;;;;;;;;;5033211;28;20040;-55
2021/09/12 10:24:58;;;;;;;7.95;4.30;;;;;;;;;;5040396;28;20095;-52
2021/09/12 10:27:34;;;;;;;8.32;4.30;;;;;;;;;;5034052;28;20029;-53
2021/09/12 10:30:17;;;;;;;5.18;3.63;;;;;;;;;;5062666;28;20475;-52
2021/09/12 10:32:43;;;;;;;5.82;3.67;;;;;;;;;;5039961;28;20033;-54
2021/09/12 10:35:16;;;;;;;6.50;3.80;;;;;;;;;;5052301;28;20035;-55
2021/09/12 10:37:53;;;;;;;5.55;3.65;;;;;;;;;;5044401;28;20036;-53
2021/09/12 10:40:19;;;;;;;6.00;3.63;;;;;;;;;;5048911;28;20477;-52
2021/09/12 10:42:45;;;;;;;7.22;4.35;;;;;;;;;;5034709;28;20053;-54
2021/09/12 10:45:22;;;;;;;7.20;3.95;;;;;;;;;;5058086;28;20025;-53
2021/09/12 10:47:49;;;;;;;5.60;3.65;;;;;;;;;;5043860;28;20037;-54
2021/09/12 10:50:33;;;;;;;5.63;3.55;;;;;;;;;;5051454;28;20028;-52
2021/09/12 10:52:59;;;;;;;4.82;3.40;;;;;;;;;;5065617;28;20020;-52
2021/09/12 10:55:25;;;;;;;6.82;3.83;;;;;;;;;;5049843;28;20135;-53
2021/09/12 10:57:51;;;;;;;5.13;3.50;;;;;;;;;;5043185;28;20033;-53
2021/09/12 11:00:18;;;;;;;7.53;3.40;;;;;;;;;;5047013;28;20034;-55
2021/09/12 11:02:48;;;;;;;5.97;3.35;;;;;;;;;;5041193;28;20036;-57
2021/09/12 11:05:22;;;;;;;4.53;3.60;;;;;;;;;;5052659;28;20074;-53
2021/09/12 11:07:48;;;;;;;;;;;;;;;;;;5048404;28;20520;-55
2021/09/12 11:10:33;;;;;;;6.00;3.92;;;;;;;;;;5047500;28;20000;-57
2021/09/12 11:12:59;;;;;;;5.35;3.17;;;;;;;;;;5057575;28;20082;-52
2021/09/12 11:15:25;;;;;;;4.03;2.70;;;;;;;;;;5038569;28;20033;-53
2021/09/12 11:17:54;;;;;;;4.55;3.10;;;;;;;;;;5035168;28;20025;-53
2021/09/12 11:20:20;;;;;;;6.25;3.05;;;;;;;;;;5049152;28;20037;-53
2021/09/12 11:22:50;;;;;;;6.60;3.95;;;;;;;;;;5041756;28;20032;-57
2021/09/12 11:25:19;;;;;;;5.63;3.53;;;;;;;;;;5043322;28;20029;-52
2021/09/12 11:27:59;;;;;;;5.80;3.40;;;;;;;;;;5042566;28;20376;-56
2021/09/12 11:30:25;;;;;;;6.07;3.25;;;;;;;;;;5045535;28;20024;-52
2021/09/12 11:32:51;;;;;;;5.90;3.80;;;;;;;;;;5048882;28;20027;-56
2021/09/12 11:35:17;;;;;;;4.78;3.53;;;;;;;;;;5040650;28;20117;-55
2021/09/12 11:37:43;;;;;;;5.70;3.60;;;;;;;;;;5050504;28;20112;-57
2021/09/12 11:40:09;;;;;;;5.22;3.15;;;;;;;;;;5050168;28;20141;-54
2021/09/12 11:42:35;;;;;;;6.28;4.22;;;;;;;;;;5052644;28;20017;-55
2021/09/12 11:45:01;;;;;;;5.07;3.65;;;;;;;;;;5051750;28;20033;-56
2021/09/12 11:47:28;;;;;;;4.38;3.17;;;;;;;;;;5043992;28;20592;-52
2021/09/12 11:49:58;;;;;;;6.13;3.50;;;;;;;;;;5048562;28;20033;-56
2021/09/12 11:52:31;;;;;;;4.50;2.90;;;;;;;;;;5050667;28;20166;-53
2021/09/12 11:54:57;;;;;;;4.53;2.83;;;;;;;;;;5062279;28;20074;-53
2021/09/12 11:57:23;;;;;;;5.20;3.42;;;;;;;;;;5066013;28;20029;-52
2021/09/12 11:59:50;;;;;;;4.78;2.72;;;;;;;;;;5052339;28;20057;-53
2021/09/12 12:02:17;;;;;;;3.08;2.50;;;;;;;;;;5057497;28;20416;-52
2021/09/12 12:04:45;;;;;;;2.65;1.98;;;;;;;;;;5068614;28;20111;-54
2021/09/12 12:07:11;;;;;;;3.88;2.53;;;;;;;;;;5074258;28;20029;-54
2021/09/12 12:09:38;;;;;;;3.20;2.42;;;;;;;;;;5060416;28;20026;-55
2021/09/12 12:12:06;;;;;;;2.97;2.08;;;;;;;;;;5066495;28;20021;-51
2021/09/12 12:14:33;;;;;;;3.38;2.47;;;;;;;;;;5054250;28;20033;-54
2021/09/12 12:17:03;;;;;;;2.50;2.10;;;;;;;;;;5074855;28;20603;-57
2021/09/12 12:19:33;;;;;;;4.05;2.03;;;;;;;;;;5053017;28;20230;-56
2021/09/12 12:22:04;;;;;;;3.70;2.70;;;;;;;;;;5068234;28;20035;-54
2021/09/12 12:24:34;;;;;;;3.53;2.17;;;;;;;;;;5060378;28;20126;-52
2021/09/12 12:27:04;;;;;;;3.25;1.85;;;;;;;;;;5068039;28;20052;-54
2021/09/12 12:29:32;;;;;;;3.60;2.00;;;;;;;;;;5072045;28;20484;-55
2021/09/12 12:31:59;;;;;;;2.72;1.85;;;;;;;;;;5059177;28;20020;-52
2021/09/12 12:34:35;;;;;;;2.30;1.63;;;;;;;;;;5059593;28;20024;-52
2021/09/12 12:37:01;;;;;;;3.72;2.13;;;;;;;;;;5039200;28;20025;-55
2021/09/12 12:39:27;;;;;;;3.22;2.20;;;;;;;;;;5042929;28;20036;-54
2021/09/12 12:41:55;;;;;;;3.78;2.40;;;;;;;;;;5047763;28;20039;-53
2021/09/12 12:44:21;;;;;;;3.70;2.13;;;;;;;;;;5054416;28;20033;-55
2021/09/12 12:46:47;;;;;;;4.35;2.53;;;;;;;;;;5061841;28;20401;-51
2021/09/12 12:49:22;;;;;;;2.97;2.08;;;;;;;;;;5058340;28;20029;-53
2021/09/12 12:52:07;;;;;;;5.35;2.70;;;;;;;;;;5056727;28;20056;-57
2021/09/12 12:54:34;;;;;;;3.92;2.88;;;;;;;;;;5057750;28;20945;-57
2021/09/12 12:57:01;;;;;;;2.08;1.60;;;;;;;;;;5046799;28;20090;-55
2021/09/12 12:59:27;;;;;;;3.13;2.30;;;;;;;;;;5043934;28;20496;-55
2021/09/12 13:01:53;;;;;;;2.80;2.22;;;;;;;;;;5046515;28;20032;-51
2021/09/12 13:04:19;;;;;;;2.65;2.10;;;;;;;;;;5051567;28;20029;-55
2021/09/12 13:06:45;;;;;;;3.28;2.38;;;;;;;;;;5057621;28;20119;-56
2021/09/12 13:09:12;;;;;;;2.90;2.05;;;;;;;;;;5039311;28;20057;-54
2021/09/12 13:11:38;;;;;;;3.88;2.40;;;;;;;;;;5046892;28;20132;-51
2021/09/12 13:14:04;;;;;;;4.28;2.20;;;;;;;;;;5051750;28;20032;-52
2021/09/12 13:16:30;;;;;;;3.83;2.17;;;;;;;;;;5059917;28;20067;-54
2021/09/12 13:18:56;;;;;;;3.88;2.03;;;;;;;;;;5061115;28;20053;-54
2021/09/12 13:21:22;;;;;;;3.50;2.25;;;;;;;;;;5046097;28;20489;-57
2021/09/12 13:23:48;;;;;;;1.95;1.48;;;;;;;;;;5043441;28;20033;-57
2021/09/12 13:26:14;;;;;;;2.15;1.80;;;;;;;;;;5051485;28;20036;-58
2021/09/12 13:28:40;;;;;;;2.85;1.60;;;;;;;;;;5062960;28;20466;-57
2021/09/12 13:31:07;;;;;;;4.00;2.10;;;;;;;;;;5050397;28;20338;-54
2021/09/12 13:33:33;;;;;;;1.90;1.70;;;;;;;;;;5057486;28;20079;-58
2021/09/12 13:36:00;;;;;;;4.68;2.00;;;;;;;;;;5059239;28;20098;-57
2021/09/12 13:38:26;;;;;;;2.78;1.58;;;;;;;;;;5055369;28;20103;-57
2021/09/12 13:40:52;;;;;;;2.10;1.63;;;;;;;;;;5050123;28;20036;-57
2021/09/12 13:43:19;;;;;;;1.98;1.52;;;;;;;;;;5054076;28;20370;-58
2021/09/12 13:45:45;;;;;;;2.30;1.50;;;;;;;;;;5067113;28;20456;-59
2021/09/12 13:48:11;;;;;;;3.72;1.90;;;;;;;;;;5038305;28;20021;-57
2021/09/12 13:50:36;;;;;;;2.53;1.40;;;;;;;;;;5042461;28;20035;-59
2021/09/12 13:53:03;;;;;;;2.72;1.83;;;;;;;;;;5030085;28;20421;-58
2021/09/12 13:55:35;;;;;;;2.78;1.52;;;;;;;;;;5046523;28;20469;-56
2021/09/12 13:58:01;;;;;;;3.38;2.15;;;;;;;;;;5021972;28;20028;-57
2021/09/12 14:00:27;;;;;;;2.30;1.50;;;;;;;;;;5044641;28;20030;-56
2021/09/12 14:02:53;;;;;;;2.88;1.90;;;;;;;;;;5052790;28;20028;-56
2021/09/12 14:05:20;;;;;;;2.63;1.80;;;;;;;;;;5047953;28;20389;-55
2021/09/12 14:07:47;;;;;;;3.10;2.00;;;;;;;;;;5057854;28;20146;-57
2021/09/12 14:10:13;;;;;;;2.97;2.17;;;;;;;;;;5059821;28;20056;-56
2021/09/12 14:12:39;;;;;;;3.03;1.77;;;;;;;;;;5045519;28;20017;-58
2021/09/12 14:15:06;;;;;;;2.75;1.83;;;;;;;;;;5051309;28;20034;-55
2021/09/12 14:17:32;;;;;;;4.47;2.17;;;;;;;;;;5056035;28;20143;-56
2021/09/12 14:19:58;;;;;;;3.33;2.17;;;;;;;;;;5052359;28;20048;-54
2021/09/12 14:22:24;;;;;;;4.32;2.28;;;;;;;;;;5058586;28;20078;-55
2021/09/12 14:24:50;;;;;;;4.10;1.98;;;;;;;;;;5058352;28;20029;-57
2021/09/12 14:27:16;;;;;;;2.67;1.77;;;;;;;;;;5046560;28;20527;-53
2021/09/12 14:29:42;;;;;;;3.28;2.10;;;;;;;;;;5038693;28;20384;-55
2021/09/12 14:32:08;;;;;;;2.53;1.80;;;;;;;;;;5049954;28;20020;-57
2021/09/12 14:34:37;;;;;;;3.17;2.00;;;;;;;;;;5051792;28;20032;-55